AFL1504 UUEE-USTR
Flight info
| Callsign | AFL1504 |
|---|---|
| Flight time | N/A |
| Altitude | 35000 |
| Route | K0842F350 OLMUN3J OLMUN T629 IPSIL T830 LAMGU N604 OGSIN P983 GINPA GINPA1F |
| Aircraft | B738/M-VGDW/C |
Departure
| Time | N/A |
|---|---|
| Airport | Sheremetyevo International Airport (UUEE) |
Arrival
| Time | 2026-04-25 22:00 |
|---|---|
| Airport | Roshchino International Airport (USTR) |
| Time | Latitude | Longitude | Altitude | Speed | Heading |
|---|---|---|---|---|---|
| 2026-04-25 20:16 | 56.65953 | 42.51003 | 34705 ft | 487 kts | 71° |
| 2026-04-25 20:16 | 56.67967 | 42.62120 | 34699 ft | 486 kts | 71° |
| 2026-04-25 20:17 | 56.70078 | 42.73835 | 34702 ft | 486 kts | 71° |
| 2026-04-25 20:17 | 56.72156 | 42.85448 | 34703 ft | 486 kts | 71° |
| 2026-04-25 20:19 | 56.78609 | 43.21970 | 34710 ft | 487 kts | 71° |
| 2026-04-25 20:19 | 56.79982 | 43.29837 | 34706 ft | 487 kts | 71° |
| 2026-04-25 20:20 | 56.84714 | 43.57218 | 34710 ft | 488 kts | 71° |
| 2026-04-25 20:21 | 56.86741 | 43.69071 | 34718 ft | 488 kts | 71° |
| 2026-04-25 20:21 | 56.88758 | 43.80950 | 34717 ft | 488 kts | 71° |
| 2026-04-25 20:22 | 56.90101 | 43.88901 | 34711 ft | 489 kts | 72° |
| 2026-04-25 20:22 | 56.92758 | 44.04741 | 34716 ft | 489 kts | 72° |
| 2026-04-25 20:23 | 56.94743 | 44.16665 | 34716 ft | 488 kts | 72° |
| 2026-04-25 20:23 | 56.96710 | 44.28567 | 34720 ft | 488 kts | 72° |
| 2026-04-25 20:24 | 56.98670 | 44.40502 | 34716 ft | 488 kts | 72° |
| 2026-04-25 20:24 | 57.00627 | 44.52505 | 34719 ft | 488 kts | 72° |
| 2026-04-25 20:25 | 57.04263 | 44.75027 | 34727 ft | 487 kts | 72° |
| 2026-04-25 20:26 | 57.05221 | 44.81013 | 34738 ft | 487 kts | 72° |
| 2026-04-25 20:26 | 57.07992 | 44.98441 | 34722 ft | 487 kts | 72° |
| 2026-04-25 20:27 | 57.09877 | 45.10394 | 34721 ft | 487 kts | 72° |
| 2026-04-25 20:27 | 57.11741 | 45.22305 | 34737 ft | 486 kts | 73° |
| 2026-04-25 20:28 | 57.13578 | 45.34121 | 34721 ft | 487 kts | 73° |
| 2026-04-25 20:28 | 57.15430 | 45.46124 | 34742 ft | 487 kts | 73° |
| 2026-04-25 20:29 | 57.17278 | 45.58183 | 34730 ft | 487 kts | 73° |
| 2026-04-25 20:29 | 57.19106 | 45.70201 | 34727 ft | 487 kts | 73° |
| 2026-04-25 20:30 | 57.20930 | 45.82281 | 34733 ft | 487 kts | 73° |
| 2026-04-25 20:30 | 57.22735 | 45.94324 | 34728 ft | 487 kts | 73° |
| 2026-04-25 20:31 | 57.24535 | 46.06420 | 34744 ft | 487 kts | 73° |
| 2026-04-25 20:31 | 57.26317 | 46.18487 | 34732 ft | 487 kts | 73° |
| 2026-04-25 20:32 | 57.28081 | 46.30517 | 34727 ft | 487 kts | 73° |
| 2026-04-25 20:32 | 57.29846 | 46.42647 | 34729 ft | 487 kts | 73° |
| 2026-04-25 20:33 | 57.31591 | 46.54737 | 34726 ft | 486 kts | 73° |
| 2026-04-25 20:33 | 57.33040 | 46.64832 | 34728 ft | 486 kts | 73° |
| 2026-04-25 20:34 | 57.35142 | 46.78927 | 34713 ft | 485 kts | 68° |
| 2026-04-25 20:34 | 57.37854 | 46.90302 | 34719 ft | 482 kts | 62° |
| 2026-04-25 20:35 | 57.40634 | 47.01623 | 34710 ft | 483 kts | 69° |
| 2026-04-25 20:35 | 57.41500 | 47.07607 | 34715 ft | 485 kts | 80° |
| 2026-04-25 20:35 | 57.41926 | 47.13804 | 34729 ft | 485 kts | 82° |
| 2026-04-25 20:36 | 57.42648 | 47.26289 | 34712 ft | 486 kts | 83° |
| 2026-04-25 20:36 | 57.43339 | 47.38115 | 34722 ft | 486 kts | 82° |
| 2026-04-25 20:37 | 57.44100 | 47.50618 | 34708 ft | 486 kts | 82° |
| 2026-04-25 20:37 | 57.44868 | 47.63090 | 34709 ft | 486 kts | 82° |
| 2026-04-25 20:38 | 57.45122 | 47.67244 | 34712 ft | 486 kts | 82° |
| 2026-04-25 20:38 | 57.46299 | 47.86840 | 34710 ft | 486 kts | 82° |
| 2026-04-25 20:39 | 57.47028 | 47.99282 | 34702 ft | 487 kts | 82° |
| 2026-04-25 20:39 | 57.47629 | 48.09699 | 34712 ft | 487 kts | 83° |
| 2026-04-25 20:40 | 57.48458 | 48.24333 | 34712 ft | 487 kts | 83° |
| 2026-04-25 20:40 | 57.49154 | 48.36873 | 34713 ft | 487 kts | 83° |
| 2026-04-25 20:41 | 57.49838 | 48.49408 | 34707 ft | 487 kts | 83° |
| 2026-04-25 20:41 | 57.50510 | 48.61968 | 34702 ft | 487 kts | 83° |
| 2026-04-25 20:42 | 57.51167 | 48.74474 | 34726 ft | 487 kts | 83° |
| 2026-04-25 20:42 | 57.51812 | 48.87002 | 34707 ft | 487 kts | 83° |
| 2026-04-25 20:43 | 57.52446 | 48.99562 | 34689 ft | 486 kts | 83° |
| 2026-04-25 20:43 | 57.53065 | 49.12082 | 34704 ft | 486 kts | 83° |
| 2026-04-25 20:44 | 57.53671 | 49.24575 | 34690 ft | 486 kts | 83° |
| 2026-04-25 20:44 | 57.54265 | 49.37092 | 34699 ft | 485 kts | 83° |
| 2026-04-25 20:45 | 57.54848 | 49.49638 | 34706 ft | 485 kts | 84° |
| 2026-04-25 20:45 | 57.55419 | 49.62185 | 34692 ft | 485 kts | 84° |
| 2026-04-25 20:46 | 57.55974 | 49.74691 | 34687 ft | 484 kts | 84° |
| 2026-04-25 20:46 | 57.56492 | 49.86592 | 34678 ft | 484 kts | 84° |
| 2026-04-25 20:47 | 57.57023 | 49.99079 | 34692 ft | 483 kts | 84° |
| 2026-04-25 20:47 | 57.57541 | 50.11570 | 34680 ft | 483 kts | 84° |
| 2026-04-25 20:48 | 57.58047 | 50.24048 | 34670 ft | 483 kts | 84° |
| 2026-04-25 20:48 | 57.58540 | 50.36542 | 34679 ft | 483 kts | 84° |
| 2026-04-25 20:49 | 57.59019 | 50.48970 | 34677 ft | 483 kts | 84° |
| 2026-04-25 20:49 | 57.59488 | 50.61466 | 34672 ft | 483 kts | 85° |
| 2026-04-25 20:50 | 57.59948 | 50.74062 | 34667 ft | 484 kts | 85° |
| 2026-04-25 20:50 | 57.60392 | 50.86568 | 34668 ft | 484 kts | 85° |
| 2026-04-25 20:51 | 57.60823 | 50.99046 | 34669 ft | 484 kts | 85° |
| 2026-04-25 20:51 | 57.61245 | 51.11638 | 34668 ft | 484 kts | 85° |
| 2026-04-25 20:52 | 57.61585 | 51.22052 | 34657 ft | 484 kts | 85° |
| 2026-04-25 20:52 | 57.62047 | 51.36658 | 34657 ft | 484 kts | 85° |
| 2026-04-25 20:53 | 57.62432 | 51.49278 | 34653 ft | 484 kts | 85° |
| 2026-04-25 20:53 | 57.62801 | 51.61758 | 34655 ft | 484 kts | 85° |
| 2026-04-25 20:54 | 57.63159 | 51.74313 | 34652 ft | 484 kts | 85° |
| 2026-04-25 20:54 | 57.63506 | 51.86890 | 34649 ft | 484 kts | 86° |
| 2026-04-25 20:55 | 57.63840 | 51.99468 | 34649 ft | 484 kts | 86° |
| 2026-04-25 20:55 | 57.64160 | 52.12019 | 34628 ft | 484 kts | 86° |
| 2026-04-25 20:56 | 57.64470 | 52.24619 | 34637 ft | 485 kts | 86° |
| 2026-04-25 20:56 | 57.64752 | 52.36565 | 34646 ft | 485 kts | 86° |
| 2026-04-25 20:57 | 57.65037 | 52.49192 | 34639 ft | 487 kts | 86° |
| 2026-04-25 20:57 | 57.65311 | 52.61848 | 34634 ft | 487 kts | 86° |
| 2026-04-25 20:58 | 57.65572 | 52.74501 | 34618 ft | 488 kts | 86° |
| 2026-04-25 20:58 | 57.65819 | 52.87111 | 34620 ft | 488 kts | 86° |
| 2026-04-25 20:59 | 57.66055 | 52.99791 | 34620 ft | 488 kts | 86° |
| 2026-04-25 20:59 | 57.66279 | 53.12493 | 34632 ft | 489 kts | 87° |
| 2026-04-25 21:00 | 57.66421 | 53.20997 | 34621 ft | 489 kts | 87° |
| 2026-04-25 21:01 | 57.66781 | 53.44207 | 34614 ft | 487 kts | 87° |
| 2026-04-25 21:01 | 57.66960 | 53.56887 | 34601 ft | 487 kts | 88° |
| 2026-04-25 21:02 | 57.67125 | 53.69514 | 34599 ft | 486 kts | 88° |
| 2026-04-25 21:02 | 57.67278 | 53.82142 | 34604 ft | 485 kts | 88° |
| 2026-04-25 21:03 | 57.67418 | 53.94755 | 34597 ft | 484 kts | 88° |
| 2026-04-25 21:03 | 57.67546 | 54.07317 | 34596 ft | 483 kts | 88° |
| 2026-04-25 21:04 | 57.67660 | 54.19819 | 34588 ft | 483 kts | 88° |
| 2026-04-25 21:04 | 57.67762 | 54.32375 | 34582 ft | 483 kts | 89° |
| 2026-04-25 21:05 | 57.67852 | 54.44929 | 34593 ft | 484 kts | 89° |
| 2026-04-25 21:05 | 57.67918 | 54.55476 | 34584 ft | 485 kts | 89° |
| 2026-04-25 21:06 | 57.67985 | 54.68012 | 34590 ft | 485 kts | 89° |
| 2026-04-25 21:06 | 57.68039 | 54.80697 | 34581 ft | 486 kts | 90° |
| 2026-04-25 21:07 | 57.68079 | 54.92448 | 34582 ft | 486 kts | 90° |
| 2026-04-25 21:07 | 57.68109 | 55.05132 | 34573 ft | 487 kts | 90° |
| 2026-04-25 21:08 | 57.68127 | 55.17775 | 34575 ft | 487 kts | 90° |
| 2026-04-25 21:08 | 57.68132 | 55.30446 | 34573 ft | 486 kts | 90° |
| 2026-04-25 21:09 | 57.68116 | 55.49334 | 34575 ft | 486 kts | 91° |
| 2026-04-25 21:09 | 57.68090 | 55.62043 | 34570 ft | 485 kts | 91° |
| 2026-04-25 21:10 | 57.68052 | 55.74575 | 34567 ft | 485 kts | 91° |
| 2026-04-25 21:10 | 57.68001 | 55.87161 | 34565 ft | 484 kts | 91° |
| 2026-04-25 21:11 | 57.67937 | 55.99768 | 34561 ft | 484 kts | 91° |
| 2026-04-25 21:11 | 57.67860 | 56.12388 | 34564 ft | 483 kts | 92° |
| 2026-04-25 21:12 | 57.67772 | 56.24951 | 34570 ft | 483 kts | 92° |
| 2026-04-25 21:12 | 57.67688 | 56.35420 | 34575 ft | 483 kts | 92° |
| 2026-04-25 21:13 | 57.67557 | 56.50085 | 34583 ft | 483 kts | 92° |
| 2026-04-25 21:13 | 57.67432 | 56.62597 | 34588 ft | 483 kts | 92° |
| 2026-04-25 21:14 | 57.67293 | 56.75181 | 34591 ft | 483 kts | 92° |
| 2026-04-25 21:14 | 57.67142 | 56.87740 | 34591 ft | 484 kts | 93° |
| 2026-04-25 21:15 | 57.66978 | 57.00365 | 34595 ft | 484 kts | 93° |
| 2026-04-25 21:15 | 57.66802 | 57.12940 | 34597 ft | 485 kts | 93° |
| 2026-04-25 21:16 | 57.66614 | 57.25483 | 34596 ft | 485 kts | 93° |
| 2026-04-25 21:16 | 57.66422 | 57.37490 | 34593 ft | 485 kts | 93° |
| 2026-04-25 21:17 | 57.66209 | 57.50128 | 34602 ft | 485 kts | 94° |
| 2026-04-25 21:17 | 57.65982 | 57.62750 | 34611 ft | 485 kts | 94° |
| 2026-04-25 21:18 | 57.65744 | 57.75339 | 34618 ft | 486 kts | 94° |
| 2026-04-25 21:18 | 57.65494 | 57.87898 | 34624 ft | 486 kts | 94° |
| 2026-04-25 21:19 | 57.65231 | 58.00495 | 34622 ft | 486 kts | 94° |
| 2026-04-25 21:19 | 57.64954 | 58.13117 | 34624 ft | 486 kts | 94° |
| 2026-04-25 21:20 | 57.64713 | 58.23669 | 34623 ft | 486 kts | 94° |
| 2026-04-25 21:20 | 57.64364 | 58.38340 | 34629 ft | 485 kts | 95° |
| 2026-04-25 21:21 | 57.64049 | 58.50971 | 34614 ft | 485 kts | 95° |
| 2026-04-25 21:21 | 57.63724 | 58.63528 | 34622 ft | 484 kts | 95° |
| 2026-04-25 21:22 | 57.63386 | 58.76102 | 34636 ft | 484 kts | 95° |
| 2026-04-25 21:22 | 57.63036 | 58.88640 | 34626 ft | 483 kts | 95° |
| 2026-04-25 21:23 | 57.62675 | 59.01119 | 34623 ft | 483 kts | 96° |
| 2026-04-25 21:23 | 57.62303 | 59.13572 | 34632 ft | 482 kts | 96° |
| 2026-04-25 21:24 | 57.61915 | 59.26135 | 34627 ft | 482 kts | 96° |
| 2026-04-25 21:24 | 57.61516 | 59.38640 | 34625 ft | 482 kts | 96° |
| 2026-04-25 21:25 | 57.61107 | 59.51103 | 34628 ft | 481 kts | 96° |
| 2026-04-25 21:25 | 57.60756 | 59.61468 | 34627 ft | 481 kts | 97° |
| 2026-04-25 21:26 | 57.60301 | 59.74593 | 34612 ft | 481 kts | 97° |
| 2026-04-25 21:26 | 57.59880 | 59.86388 | 34629 ft | 481 kts | 97° |
| 2026-04-25 21:27 | 57.59423 | 59.98851 | 34626 ft | 481 kts | 97° |
| 2026-04-25 21:27 | 57.58953 | 60.11309 | 34624 ft | 482 kts | 97° |
| 2026-04-25 21:28 | 57.58470 | 60.23808 | 34623 ft | 483 kts | 97° |
| 2026-04-25 21:28 | 57.57976 | 60.36282 | 34632 ft | 483 kts | 97° |
| 2026-04-25 21:29 | 57.57471 | 60.48717 | 34614 ft | 483 kts | 98° |
| 2026-04-25 21:29 | 57.56952 | 60.61195 | 34610 ft | 483 kts | 98° |
| 2026-04-25 21:30 | 57.56418 | 60.73707 | 34622 ft | 483 kts | 99° |
| 2026-04-25 21:30 | 57.55966 | 60.84072 | 34633 ft | 482 kts | 99° |
| 2026-04-25 21:31 | 57.55319 | 60.98592 | 34635 ft | 483 kts | 99° |
| 2026-04-25 21:31 | 57.54753 | 61.10998 | 34635 ft | 483 kts | 99° |
| 2026-04-25 21:32 | 57.54172 | 61.23450 | 34625 ft | 483 kts | 99° |
| 2026-04-25 21:32 | 57.53776 | 61.31789 | 34630 ft | 483 kts | 99° |
| 2026-04-25 21:33 | 57.52966 | 61.48510 | 34632 ft | 482 kts | 100° |
| 2026-04-25 21:33 | 57.52348 | 61.60956 | 34612 ft | 483 kts | 100° |
| 2026-04-25 21:34 | 57.52031 | 61.67223 | 34032 ft | 489 kts | 101° |
| 2026-04-25 21:34 | 57.51708 | 61.73543 | 33410 ft | 488 kts | 101° |
| 2026-04-25 21:34 | 57.51386 | 61.79826 | 32676 ft | 488 kts | 101° |
| 2026-04-25 21:34 | 57.51062 | 61.86093 | 32161 ft | 484 kts | 101° |
| 2026-04-25 21:35 | 57.50744 | 61.92228 | 31654 ft | 479 kts | 102° |
| 2026-04-25 21:35 | 57.50422 | 61.98375 | 31182 ft | 474 kts | 102° |
| 2026-04-25 21:35 | 57.50100 | 62.04429 | 30731 ft | 469 kts | 102° |
| 2026-04-25 21:35 | 57.49778 | 62.10436 | 30266 ft | 464 kts | 103° |
| 2026-04-25 21:36 | 57.49453 | 62.16415 | 29811 ft | 460 kts | 103° |
| 2026-04-25 21:36 | 57.49130 | 62.22300 | 29262 ft | 456 kts | 103° |
| 2026-04-25 21:36 | 57.48450 | 62.34547 | 28240 ft | 444 kts | 104° |
| 2026-04-25 21:37 | 57.48132 | 62.40212 | 27773 ft | 438 kts | 104° |
| 2026-04-25 21:37 | 57.48024 | 62.42118 | 27611 ft | 436 kts | 104° |
| 2026-04-25 21:37 | 57.47498 | 62.51341 | 26859 ft | 428 kts | 104° |
| 2026-04-25 21:37 | 57.47286 | 62.55012 | 26552 ft | 426 kts | 104° |
| 2026-04-25 21:38 | 57.46970 | 62.60449 | 26095 ft | 422 kts | 105° |
| 2026-04-25 21:38 | 57.46655 | 62.65840 | 25631 ft | 418 kts | 106° |
| 2026-04-25 21:38 | 57.46339 | 62.71211 | 25182 ft | 413 kts | 106° |
| 2026-04-25 21:38 | 57.46026 | 62.76489 | 24766 ft | 409 kts | 107° |
| 2026-04-25 21:39 | 57.45714 | 62.81715 | 24336 ft | 406 kts | 107° |
| 2026-04-25 21:39 | 57.45401 | 62.86911 | 23918 ft | 404 kts | 107° |
| 2026-04-25 21:39 | 57.45086 | 62.92102 | 23493 ft | 401 kts | 107° |
| 2026-04-25 21:39 | 57.44773 | 62.97233 | 23043 ft | 399 kts | 107° |
| 2026-04-25 21:40 | 57.44458 | 63.02338 | 22553 ft | 397 kts | 107° |
| 2026-04-25 21:40 | 57.44142 | 63.07445 | 22094 ft | 393 kts | 107° |
| 2026-04-25 21:40 | 57.43831 | 63.12462 | 21703 ft | 389 kts | 107° |
| 2026-04-25 21:40 | 57.43520 | 63.17433 | 21272 ft | 386 kts | 107° |
| 2026-04-25 21:41 | 57.43210 | 63.22355 | 20881 ft | 382 kts | 107° |
| 2026-04-25 21:41 | 57.42901 | 63.27223 | 20462 ft | 380 kts | 106° |
| 2026-04-25 21:41 | 57.42591 | 63.32071 | 20060 ft | 377 kts | 106° |
| 2026-04-25 21:41 | 57.42282 | 63.36880 | 19642 ft | 374 kts | 107° |
| 2026-04-25 21:42 | 57.41972 | 63.41671 | 19264 ft | 370 kts | 106° |
| 2026-04-25 21:42 | 57.41665 | 63.46399 | 18867 ft | 368 kts | 106° |
| 2026-04-25 21:42 | 57.41358 | 63.51098 | 18479 ft | 366 kts | 106° |
| 2026-04-25 21:42 | 57.41052 | 63.55759 | 18098 ft | 363 kts | 106° |
| 2026-04-25 21:43 | 57.40742 | 63.60431 | 17670 ft | 361 kts | 106° |
| 2026-04-25 21:43 | 57.40438 | 63.65020 | 17249 ft | 359 kts | 105° |
| 2026-04-25 21:43 | 57.40132 | 63.69598 | 16872 ft | 355 kts | 105° |
| 2026-04-25 21:43 | 57.39902 | 63.74241 | 16132 ft | 365 kts | 101° |
| 2026-04-25 21:44 | 57.39813 | 63.78884 | 15681 ft | 365 kts | 98° |
| 2026-04-25 21:44 | 57.39769 | 63.83651 | 15262 ft | 364 kts | 97° |
| 2026-04-25 21:44 | 57.39686 | 63.92964 | 14461 ft | 358 kts | 97° |
| 2026-04-25 21:45 | 57.39631 | 63.97563 | 14078 ft | 355 kts | 97° |
| 2026-04-25 21:45 | 57.39589 | 64.00584 | 13824 ft | 354 kts | 97° |
| 2026-04-25 21:45 | 57.39497 | 64.06611 | 13275 ft | 351 kts | 98° |
| 2026-04-25 21:45 | 57.39423 | 64.11109 | 12864 ft | 348 kts | 98° |
| 2026-04-25 21:46 | 57.39343 | 64.15619 | 12491 ft | 344 kts | 97° |
| 2026-04-25 21:46 | 57.39266 | 64.19989 | 12115 ft | 341 kts | 97° |
| 2026-04-25 21:46 | 57.39187 | 64.24309 | 11752 ft | 338 kts | 97° |
| 2026-04-25 21:46 | 57.39112 | 64.28312 | 11408 ft | 335 kts | 96° |
| 2026-04-25 21:47 | 57.39030 | 64.32607 | 11031 ft | 332 kts | 96° |
| 2026-04-25 21:47 | 57.38947 | 64.36894 | 10674 ft | 330 kts | 96° |
| 2026-04-25 21:47 | 57.38863 | 64.41126 | 10308 ft | 327 kts | 95° |
| 2026-04-25 21:47 | 57.38779 | 64.45302 | 10119 ft | 319 kts | 95° |
| 2026-04-25 21:48 | 57.38698 | 64.49325 | 9977 ft | 310 kts | 95° |
| 2026-04-25 21:48 | 57.38618 | 64.53256 | 9864 ft | 301 kts | 95° |
| 2026-04-25 21:48 | 57.38538 | 64.57082 | 9734 ft | 293 kts | 95° |
| 2026-04-25 21:48 | 57.38458 | 64.60852 | 9579 ft | 286 kts | 95° |
| 2026-04-25 21:49 | 57.38379 | 64.64490 | 9289 ft | 285 kts | 95° |
| 2026-04-25 21:49 | 57.38297 | 64.68190 | 9023 ft | 282 kts | 95° |
| 2026-04-25 21:49 | 57.38216 | 64.71808 | 8746 ft | 280 kts | 95° |
| 2026-04-25 21:49 | 57.38136 | 64.75379 | 8478 ft | 278 kts | 95° |
| 2026-04-25 21:50 | 57.38055 | 64.78949 | 8203 ft | 277 kts | 95° |
| 2026-04-25 21:50 | 57.37972 | 64.82507 | 7922 ft | 276 kts | 95° |
| 2026-04-25 21:50 | 57.37888 | 64.86059 | 7611 ft | 276 kts | 95° |
| 2026-04-25 21:50 | 57.37832 | 64.88423 | 7429 ft | 275 kts | 95° |
| 2026-04-25 21:51 | 57.37720 | 64.93132 | 7011 ft | 271 kts | 95° |
| 2026-04-25 21:51 | 57.37635 | 64.96622 | 6524 ft | 272 kts | 95° |
| 2026-04-25 21:51 | 57.37553 | 65.00109 | 6064 ft | 272 kts | 94° |
| 2026-04-25 21:51 | 57.37467 | 65.03594 | 5688 ft | 269 kts | 95° |
| 2026-04-25 21:52 | 57.37380 | 65.07059 | 5262 ft | 271 kts | 95° |
| 2026-04-25 21:52 | 57.37292 | 65.10535 | 5038 ft | 269 kts | 95° |
| 2026-04-25 21:52 | 57.37202 | 65.13990 | 4827 ft | 267 kts | 94° |
| 2026-04-25 21:52 | 57.37113 | 65.17426 | 4535 ft | 267 kts | 94° |
| 2026-04-25 21:53 | 57.37022 | 65.20853 | 4297 ft | 265 kts | 94° |
| 2026-04-25 21:53 | 57.36934 | 65.24281 | 3964 ft | 266 kts | 94° |
| 2026-04-25 21:53 | 57.36844 | 65.27713 | 3665 ft | 266 kts | 94° |
| 2026-04-25 21:53 | 57.36752 | 65.31129 | 3373 ft | 266 kts | 94° |
| 2026-04-25 21:54 | 57.36675 | 65.34565 | 3102 ft | 265 kts | 92° |
| 2026-04-25 21:54 | 57.36580 | 65.37934 | 3027 ft | 261 kts | 99° |
| 2026-04-25 21:54 | 57.35948 | 65.40958 | 2935 ft | 245 kts | 129° |
| 2026-04-25 21:54 | 57.34848 | 65.43279 | 2790 ft | 236 kts | 142° |
| 2026-04-25 21:55 | 57.33631 | 65.45275 | 2664 ft | 230 kts | 144° |
| 2026-04-25 21:55 | 57.32435 | 65.47204 | 2526 ft | 228 kts | 143° |
| 2026-04-25 21:55 | 57.31261 | 65.49147 | 2374 ft | 224 kts | 142° |
| 2026-04-25 21:55 | 57.30041 | 65.50848 | 2267 ft | 220 kts | 163° |
| 2026-04-25 21:56 | 57.28636 | 65.50921 | 2223 ft | 192 kts | 207° |
| 2026-04-25 21:56 | 57.27935 | 65.49999 | 2202 ft | 177 kts | 230° |
| 2026-04-25 21:56 | 57.26860 | 65.48148 | 2226 ft | 179 kts | 223° |
| 2026-04-25 21:56 | 57.25995 | 65.46553 | 2209 ft | 165 kts | 233° |
| 2026-04-25 21:57 | 57.25256 | 65.44990 | 2094 ft | 157 kts | 232° |
| 2026-04-25 21:57 | 57.24560 | 65.43560 | 1935 ft | 143 kts | 232° |
| 2026-04-25 21:57 | 57.23908 | 65.42239 | 1794 ft | 138 kts | 232° |
| 2026-04-25 21:57 | 57.23262 | 65.40931 | 1609 ft | 137 kts | 232° |
| 2026-04-25 21:58 | 57.22635 | 65.39663 | 1458 ft | 132 kts | 231° |
| 2026-04-25 21:58 | 57.22015 | 65.38409 | 1287 ft | 134 kts | 231° |
| 2026-04-25 21:58 | 57.21364 | 65.37095 | 1112 ft | 142 kts | 229° |
| 2026-04-25 21:58 | 57.20677 | 65.35706 | 906 ft | 149 kts | 228° |
| 2026-04-25 21:59 | 57.19979 | 65.34291 | 706 ft | 149 kts | 227° |
| 2026-04-25 21:59 | 57.19267 | 65.32884 | 531 ft | 148 kts | 227° |
| 2026-04-25 21:59 | 57.18581 | 65.31477 | 364 ft | 146 kts | 228° |
| 2026-04-25 22:00 | 57.17639 | 65.29563 | 384 ft | 32 kts | 228° |
| 2026-04-25 22:00 | 57.17533 | 65.29354 | 385 ft | 10 kts | 221° |
| 2026-04-25 22:00 | 57.17472 | 65.29364 | 385 ft | 10 kts | 140° |
| 2026-04-25 22:00 | 57.17418 | 65.29454 | 386 ft | 11 kts | 138° |
| 2026-04-25 22:01 | 57.17379 | 65.29555 | 386 ft | 10 kts | 90° |
| 2026-04-25 22:01 | 57.17416 | 65.29654 | 385 ft | 10 kts | 46° |
| 2026-04-25 22:01 | 57.17491 | 65.29804 | 384 ft | 23 kts | 47° |
| 2026-04-25 22:01 | 57.17563 | 65.29950 | 383 ft | 24 kts | 48° |
| 2026-04-25 22:02 | 57.17707 | 65.30244 | 379 ft | 22 kts | 48° |
| 2026-04-25 22:02 | 57.17811 | 65.30453 | 377 ft | 22 kts | 48° |
| 2026-04-25 22:02 | 57.17910 | 65.30655 | 374 ft | 20 kts | 47° |
| 2026-04-25 22:02 | 57.18000 | 65.30835 | 370 ft | 18 kts | 47° |
| 2026-04-25 22:03 | 57.18083 | 65.31005 | 367 ft | 18 kts | 48° |
| 2026-04-25 22:03 | 57.18169 | 65.31180 | 363 ft | 18 kts | 47° |
| 2026-04-25 22:03 | 57.18253 | 65.31349 | 363 ft | 19 kts | 47° |
| 2026-04-25 22:03 | 57.18344 | 65.31534 | 353 ft | 20 kts | 47° |
| 2026-04-25 22:04 | 57.18431 | 65.31710 | 354 ft | 16 kts | 47° |
| 2026-04-25 22:04 | 57.18458 | 65.31890 | 342 ft | 16 kts | 88° |
| 2026-04-25 22:04 | 57.18462 | 65.32119 | 335 ft | 20 kts | 88° |
| 2026-04-25 22:04 | 57.18466 | 65.32390 | 327 ft | 23 kts | 88° |
| 2026-04-25 22:05 | 57.18471 | 65.32679 | 325 ft | 22 kts | 88° |
| 2026-04-25 22:05 | 57.18476 | 65.32958 | 331 ft | 20 kts | 88° |
| 2026-04-25 22:05 | 57.18516 | 65.33166 | 333 ft | 17 kts | 47° |
| 2026-04-25 22:05 | 57.18594 | 65.33315 | 338 ft | 12 kts | 46° |
| 2026-04-25 22:06 | 57.18619 | 65.33452 | 339 ft | 12 kts | 89° |
| 2026-04-25 22:06 | 57.18612 | 65.33597 | 336 ft | 11 kts | 114° |
| 2026-04-25 22:06 | 57.18567 | 65.33695 | 337 ft | 11 kts | 134° |
| 2026-04-25 22:06 | 57.18514 | 65.33792 | 339 ft | 11 kts | 135° |
| 2026-04-25 22:07 | 57.18480 | 65.33856 | 338 ft | 10 kts | 135° |
| 2026-04-25 22:07 | 57.18430 | 65.33949 | 339 ft | 10 kts | 135° |
| 2026-04-25 22:07 | 57.18381 | 65.34039 | 339 ft | 10 kts | 135° |
| 2026-04-25 22:07 | 57.18333 | 65.34126 | 338 ft | 10 kts | 135° |
| 2026-04-25 22:08 | 57.18287 | 65.34213 | 339 ft | 9 kts | 134° |
| 2026-04-25 22:08 | 57.18242 | 65.34297 | 339 ft | 9 kts | 135° |
| 2026-04-25 22:08 | 57.18198 | 65.34378 | 338 ft | 9 kts | 135° |
| 2026-04-25 22:08 | 57.18156 | 65.34456 | 337 ft | 9 kts | 135° |
| 2026-04-25 22:09 | 57.18114 | 65.34533 | 338 ft | 8 kts | 135° |
| 2026-04-25 22:09 | 57.18074 | 65.34607 | 339 ft | 8 kts | 135° |
| 2026-04-25 22:09 | 57.18035 | 65.34679 | 337 ft | 8 kts | 135° |
| 2026-04-25 22:09 | 57.18011 | 65.34738 | 339 ft | 5 kts | 105° |
| 2026-04-25 22:10 | 57.18022 | 65.34794 | 339 ft | 5 kts | 48° |
| 2026-04-25 22:10 | 57.18045 | 65.34834 | 339 ft | 3 kts | 43° |
| 2026-04-25 22:10 | 57.18049 | 65.34842 | 339 ft | 2 kts | 44° |
| 2026-04-25 22:11 | 57.18054 | 65.34851 | 339 ft | 0 kts | 45° |